createdAt,value
2023-05-15T00:01:01.903Z,96.88
2023-05-15T00:03:30.252Z,97.36
2023-05-15T00:05:58.560Z,97.78
2023-05-15T00:08:28.149Z,98.13
2023-05-15T00:11:01.700Z,98.43
2023-05-15T00:13:30.552Z,98.40
2023-05-15T00:15:58.842Z,98.72
2023-05-15T00:18:27.306Z,98.95
2023-05-15T00:20:55.657Z,99.55
2023-05-15T00:23:23.910Z,99.52
2023-05-15T00:25:54.071Z,99.53
2023-05-15T00:28:22.211Z,100.00
2023-05-15T00:30:50.527Z,100.00
2023-05-15T00:33:18.779Z,100.00
2023-05-15T00:35:47.154Z,100.00
2023-05-15T00:38:15.603Z,100.00
2023-05-15T00:40:45.430Z,100.00
2023-05-15T00:43:16.940Z,100.00
2023-05-15T00:45:45.816Z,100.00
2023-05-15T00:48:14.401Z,100.00
2023-05-15T00:50:43.459Z,100.00
2023-05-15T00:53:12.131Z,100.00
2023-05-15T00:55:41.474Z,99.85
2023-05-15T00:58:11.864Z,100.00
2023-05-15T01:00:42.287Z,100.00
2023-05-15T01:03:10.593Z,100.00
2023-05-15T01:05:39.112Z,100.00
2023-05-15T01:08:20.064Z,100.00
2023-05-15T01:10:49.755Z,99.46
2023-05-15T01:13:20.683Z,99.38
2023-05-15T01:15:50.815Z,99.65
2023-05-15T01:18:19.031Z,100.00
2023-05-15T01:21:16.917Z,100.00
2023-05-15T01:24:03.685Z,100.00
2023-05-15T01:26:57.697Z,100.00
2023-05-15T01:29:31.632Z,100.00
2023-05-15T01:32:03.783Z,100.00
2023-05-15T01:34:39.620Z,100.00
2023-05-15T01:37:09.944Z,100.00
2023-05-15T01:39:41.126Z,100.00
2023-05-15T01:42:12.046Z,100.00
2023-05-15T01:44:47.225Z,100.00
2023-05-15T01:47:18.946Z,100.00
2023-05-15T01:49:50.521Z,100.00
2023-05-15T01:52:22.387Z,100.00
2023-05-15T01:54:51.230Z,100.00
2023-05-15T01:57:20.601Z,100.00
2023-05-15T01:59:52.249Z,100.00
2023-05-15T02:02:21.201Z,100.00
2023-05-15T02:04:51.295Z,100.00
2023-05-15T02:07:21.855Z,100.00
2023-05-15T02:09:52.145Z,100.00
2023-05-15T02:12:22.390Z,100.00
2023-05-15T02:14:53.158Z,100.00
2023-05-15T02:17:22.154Z,100.00
2023-05-15T02:19:51.309Z,100.00
2023-05-15T02:22:19.885Z,100.00
2023-05-15T02:24:48.126Z,100.00
2023-05-15T02:27:23.637Z,100.00
2023-05-15T02:30:04.381Z,100.00
2023-05-15T02:32:41.610Z,100.00
2023-05-15T02:35:19.879Z,100.00
2023-05-15T02:37:52.199Z,100.00
2023-05-15T02:40:22.881Z,100.00
2023-05-15T02:42:53.525Z,100.00
2023-05-15T02:45:25.685Z,100.00
2023-05-15T02:47:55.004Z,100.00
2023-05-15T02:50:23.785Z,100.00
2023-05-15T02:52:52.080Z,100.00
2023-05-15T02:55:20.674Z,100.00
2023-05-15T02:57:48.835Z,100.00
2023-05-15T03:00:17.600Z,100.00
2023-05-15T03:02:47.194Z,100.00
2023-05-15T03:05:15.469Z,100.00
2023-05-15T03:07:43.639Z,100.00
2023-05-15T03:10:11.854Z,100.00
2023-05-15T03:12:41.070Z,100.00
2023-05-15T03:15:09.927Z,100.00
2023-05-15T03:17:38.177Z,100.00
2023-05-15T03:20:09.736Z,100.00
2023-05-15T03:22:37.928Z,100.00
2023-05-15T03:25:07.049Z,100.00
2023-05-15T03:27:35.518Z,100.00
2023-05-15T03:30:04.317Z,100.00
2023-05-15T03:32:32.665Z,100.00
2023-05-15T03:35:00.899Z,100.00
2023-05-15T03:37:30.570Z,100.00
2023-05-15T03:39:59.342Z,100.00
2023-05-15T03:42:27.961Z,100.00
2023-05-15T03:44:56.863Z,100.00
2023-05-15T03:47:25.138Z,100.00
2023-05-15T03:49:54.292Z,100.00
2023-05-15T03:52:22.490Z,100.00
2023-05-15T03:54:52.355Z,100.00
2023-05-15T03:57:20.611Z,100.00
2023-05-15T03:59:48.783Z,100.00
2023-05-15T04:02:16.995Z,100.00
2023-05-15T04:04:45.371Z,100.00
2023-05-15T04:07:13.652Z,100.00
2023-05-15T04:09:41.841Z,100.00
2023-05-15T04:12:11.424Z,100.00
2023-05-15T04:14:41.968Z,100.00
2023-05-15T04:17:10.169Z,100.00
2023-05-15T04:19:39.132Z,100.00
2023-05-15T04:22:08.066Z,100.00
2023-05-15T04:24:36.201Z,100.00
2023-05-15T04:27:04.785Z,100.00
2023-05-15T04:29:34.847Z,100.00
2023-05-15T04:32:03.347Z,100.00
2023-05-15T04:34:31.581Z,100.00
2023-05-15T04:36:59.774Z,100.00
2023-05-15T04:39:27.929Z,100.00
2023-05-15T04:41:56.186Z,100.00
2023-05-15T04:44:24.417Z,100.00
2023-05-15T04:46:53.899Z,100.00
2023-05-15T04:49:22.073Z,100.00
2023-05-15T04:51:50.259Z,100.00
2023-05-15T04:54:18.476Z,100.00
2023-05-15T04:56:46.934Z,100.00
2023-05-15T04:59:15.921Z,100.00
2023-05-15T05:01:44.490Z,100.00
2023-05-15T05:04:14.684Z,100.00
2023-05-15T05:06:43.148Z,100.00
2023-05-15T05:09:11.410Z,100.00
2023-05-15T05:11:43.506Z,100.00
2023-05-15T05:14:12.079Z,100.00
2023-05-15T05:16:40.586Z,100.00
2023-05-15T05:19:09.456Z,100.00
2023-05-15T05:21:39.177Z,100.00
2023-05-15T05:24:07.464Z,100.00
2023-05-15T05:26:35.707Z,100.00
2023-05-15T05:29:03.908Z,100.00
2023-05-15T05:31:32.289Z,100.00
2023-05-15T05:34:00.505Z,100.00
2023-05-15T05:36:28.756Z,100.00
2023-05-15T05:38:58.443Z,100.00
2023-05-15T05:41:30.285Z,100.00
2023-05-15T05:43:58.437Z,100.00
2023-05-15T05:46:27.336Z,100.00
2023-05-15T05:48:55.607Z,100.00
2023-05-15T05:51:23.872Z,100.00
2023-05-15T05:53:52.045Z,100.00
2023-05-15T05:56:22.675Z,100.00
2023-05-15T05:58:51.274Z,100.00
2023-05-15T06:01:19.481Z,100.00
2023-05-15T06:03:47.748Z,100.00
2023-05-15T06:06:16.124Z,100.00
2023-05-15T06:08:44.489Z,100.00
2023-05-15T06:11:12.906Z,99.76
2023-05-15T06:13:43.400Z,98.12
2023-05-15T06:16:11.590Z,98.18
2023-05-15T06:18:39.816Z,99.09
2023-05-15T06:21:08.223Z,98.91
2023-05-15T06:23:37.355Z,98.78
2023-05-15T06:26:05.701Z,98.79
2023-05-15T06:28:34.439Z,97.81
2023-05-15T06:31:04.287Z,97.12
2023-05-15T06:33:32.887Z,96.81
2023-05-15T06:36:01.424Z,96.06
2023-05-15T06:38:29.614Z,96.22
2023-05-15T06:40:58.130Z,96.45
2023-05-15T06:43:26.275Z,96.00
2023-05-15T06:45:54.536Z,96.14
2023-05-15T06:48:24.606Z,96.97
2023-05-15T06:50:52.804Z,97.11
2023-05-15T06:53:21.428Z,96.77
2023-05-15T06:55:49.922Z,95.85
2023-05-15T06:58:18.286Z,97.17
2023-05-15T07:00:46.489Z,96.35
2023-05-15T07:03:16.698Z,95.53
2023-05-15T07:05:46.521Z,94.89
2023-05-15T07:08:15.073Z,94.15
2023-05-15T07:10:43.385Z,92.75
2023-05-15T07:13:11.618Z,91.20
2023-05-15T07:15:40.480Z,89.82
2023-05-15T07:18:08.821Z,87.74
2023-05-15T07:20:37.404Z,86.95
2023-05-15T07:23:07.381Z,87.87
2023-05-15T07:25:35.604Z,86.01
2023-05-15T07:28:03.821Z,83.81
2023-05-15T07:30:32.056Z,82.46
2023-05-15T07:33:00.966Z,81.62
2023-05-15T07:35:29.512Z,79.19
2023-05-15T07:37:57.695Z,78.73
2023-05-15T07:40:27.446Z,79.23
2023-05-15T07:42:55.802Z,78.74
2023-05-15T07:45:24.374Z,78.67
2023-05-15T07:47:53.023Z,78.54
2023-05-15T07:50:21.427Z,77.03
2023-05-15T07:52:49.942Z,75.76
2023-05-15T07:55:18.121Z,74.99
2023-05-15T07:57:53.370Z,74.68
2023-05-15T08:00:22.661Z,72.04
2023-05-15T08:02:51.035Z,72.63
2023-05-15T08:05:19.416Z,73.49
2023-05-15T08:07:47.585Z,72.62
2023-05-15T08:10:16.128Z,71.95
2023-05-15T08:12:46.532Z,73.45
2023-05-15T08:15:16.177Z,72.85
2023-05-15T08:17:44.611Z,72.55
2023-05-15T08:20:14.080Z,71.81
2023-05-15T08:22:42.219Z,71.40
2023-05-15T08:25:10.949Z,70.64
2023-05-15T08:27:39.153Z,70.06
2023-05-15T08:30:08.668Z,69.93
2023-05-15T08:32:38.522Z,70.55
2023-05-15T08:35:08.209Z,69.52
2023-05-15T08:37:36.567Z,69.13
2023-05-15T08:40:07.975Z,70.62
2023-05-15T08:42:44.267Z,69.80
2023-05-15T08:45:13.815Z,69.64
2023-05-15T08:47:44.234Z,69.09
2023-05-15T08:50:14.616Z,69.29
2023-05-15T08:52:43.961Z,67.53
2023-05-15T08:55:12.589Z,67.87
2023-05-15T08:57:42.174Z,68.19
2023-05-15T09:00:14.527Z,69.01
2023-05-15T09:02:44.493Z,69.03
2023-05-15T09:05:12.694Z,69.33
2023-05-15T09:07:41.793Z,69.52
2023-05-15T09:10:11.114Z,69.09
2023-05-15T09:12:44.058Z,67.96
2023-05-15T09:15:14.353Z,69.23
2023-05-15T09:17:44.409Z,68.90
2023-05-15T09:20:26.921Z,67.35
2023-05-15T09:22:55.424Z,67.61
2023-05-15T09:25:40.119Z,66.44
2023-05-15T09:28:10.577Z,65.57
2023-05-15T09:30:39.433Z,66.22
2023-05-15T09:33:10.223Z,67.29
2023-05-15T09:35:40.615Z,66.99
2023-05-15T09:38:11.606Z,67.10
2023-05-15T09:40:41.014Z,67.40
2023-05-15T09:43:11.353Z,67.31
2023-05-15T09:45:39.985Z,66.73
2023-05-15T09:48:11.899Z,67.33
2023-05-15T09:50:41.025Z,67.00
2023-05-15T09:53:12.787Z,67.34
2023-05-15T09:55:42.981Z,67.75
2023-05-15T09:58:12.242Z,66.74
2023-05-15T10:00:48.568Z,66.81
2023-05-15T10:03:20.631Z,65.17
2023-05-15T10:05:49.125Z,66.95
2023-05-15T10:08:26.859Z,65.05
2023-05-15T10:10:55.387Z,63.09
2023-05-15T10:13:24.156Z,62.47
2023-05-15T10:15:53.954Z,62.44
2023-05-15T10:18:28.592Z,64.04
2023-05-15T10:20:57.995Z,61.72
2023-05-15T10:23:27.066Z,62.21
2023-05-15T10:26:02.944Z,62.38
2023-05-15T10:28:32.414Z,62.03
2023-05-15T10:31:02.761Z,63.01
2023-05-15T10:33:33.733Z,62.50
2023-05-15T10:36:02.986Z,62.77
2023-05-15T10:38:32.244Z,62.86
2023-05-15T10:41:15.669Z,63.64
2023-05-15T10:43:45.797Z,62.85
2023-05-15T10:46:15.012Z,64.40
2023-05-15T10:48:44.745Z,63.60
2023-05-15T10:51:17.623Z,63.43
2023-05-15T10:53:46.737Z,63.03
2023-05-15T10:56:16.660Z,63.74
2023-05-15T10:58:47.351Z,63.32
2023-05-15T11:01:33.097Z,61.42
2023-05-15T11:04:13.609Z,60.54
2023-05-15T11:06:43.936Z,61.35
2023-05-15T11:09:34.986Z,61.41
2023-05-15T11:12:04.258Z,59.83
2023-05-15T11:14:33.516Z,60.29
2023-05-15T11:17:04.007Z,60.94
2023-05-15T11:19:55.896Z,61.00
2023-05-15T11:22:29.801Z,61.78
2023-05-15T11:25:00.805Z,63.25
2023-05-15T11:27:31.910Z,62.46
2023-05-15T11:30:10.007Z,62.81
2023-05-15T11:32:45.900Z,62.35
2023-05-15T11:35:20.366Z,62.44
2023-05-15T11:37:50.222Z,63.22
2023-05-15T11:40:24.394Z,61.74
2023-05-15T11:43:08.120Z,61.74
2023-05-15T11:45:38.470Z,62.00
2023-05-15T11:48:12.405Z,61.56
2023-05-15T11:50:43.004Z,61.87
2023-05-15T11:53:11.524Z,61.12
2023-05-15T11:55:41.561Z,60.25
2023-05-15T11:58:14.077Z,59.82
2023-05-15T12:00:43.149Z,59.94
2023-05-15T12:03:18.551Z,60.20
2023-05-15T12:05:58.124Z,59.77
2023-05-15T12:08:31.555Z,59.26
2023-05-15T12:11:00.495Z,60.92
2023-05-15T12:13:29.086Z,61.73
2023-05-15T12:15:57.786Z,63.82
2023-05-15T12:18:26.350Z,64.93
2023-05-15T12:20:56.471Z,67.62
2023-05-15T12:23:26.702Z,70.10
2023-05-15T12:25:59.945Z,74.11
2023-05-15T12:28:29.779Z,74.95
2023-05-15T12:30:59.115Z,78.10
2023-05-15T12:33:27.542Z,77.89
2023-05-15T12:36:01.142Z,78.39
2023-05-15T12:38:30.592Z,80.69
2023-05-15T12:40:59.364Z,79.15
2023-05-15T12:43:28.513Z,79.76
2023-05-15T12:45:57.800Z,81.10
2023-05-15T12:48:30.988Z,80.75
2023-05-15T12:51:07.798Z,80.45
2023-05-15T12:53:39.452Z,79.55
2023-05-15T12:56:09.006Z,78.90
2023-05-15T12:58:38.274Z,79.60
2023-05-15T13:01:06.910Z,80.13
2023-05-15T13:03:35.555Z,80.85
2023-05-15T13:06:04.258Z,80.43
2023-05-15T13:08:33.843Z,80.77
2023-05-15T13:11:02.025Z,81.54
2023-05-15T13:13:46.612Z,83.75
2023-05-15T13:16:22.521Z,86.25
2023-05-15T13:18:50.869Z,88.40
2023-05-15T13:21:19.473Z,91.03
2023-05-15T13:23:49.212Z,92.98
2023-05-15T13:26:17.380Z,94.29
2023-05-15T13:28:45.579Z,95.51
2023-05-15T13:31:13.832Z,97.62
2023-05-15T13:33:42.081Z,99.58
2023-05-15T13:36:25.905Z,99.84
2023-05-15T13:38:56.024Z,100.00
2023-05-15T13:41:24.709Z,100.00
2023-05-15T13:43:52.864Z,100.00
2023-05-15T13:46:21.092Z,100.00
2023-05-15T13:48:49.627Z,100.00
2023-05-15T13:51:17.874Z,99.99
2023-05-15T13:53:46.009Z,99.86
2023-05-15T13:56:16.340Z,99.45
2023-05-15T13:58:44.522Z,97.58
2023-05-15T14:01:13.087Z,96.81
2023-05-15T14:03:41.358Z,95.34
2023-05-15T14:06:10.134Z,95.28
2023-05-15T14:08:38.288Z,95.41
2023-05-15T14:11:06.474Z,95.76
2023-05-15T14:13:36.014Z,95.91
2023-05-15T14:16:04.241Z,95.94
2023-05-15T14:18:32.452Z,96.34
2023-05-15T14:21:00.723Z,96.49
2023-05-15T14:23:29.295Z,95.79
2023-05-15T14:25:57.887Z,96.15
2023-05-15T14:28:26.080Z,96.98
2023-05-15T14:30:55.590Z,96.02
2023-05-15T14:33:23.798Z,94.26
2023-05-15T14:35:52.418Z,93.86
2023-05-15T14:38:20.592Z,92.85
2023-05-15T14:40:48.789Z,92.51
2023-05-15T14:43:17.200Z,92.42
2023-05-15T14:45:45.396Z,92.75
2023-05-15T14:48:14.883Z,93.30
2023-05-15T14:50:43.059Z,93.31
2023-05-15T14:53:11.602Z,93.24
2023-05-15T14:55:39.785Z,93.20
2023-05-15T14:58:11.187Z,92.42
2023-05-15T15:00:39.387Z,91.55
2023-05-15T15:03:08.189Z,90.67
2023-05-15T15:05:37.814Z,90.63
2023-05-15T15:08:07.169Z,90.99
2023-05-15T15:10:36.781Z,91.19
2023-05-15T15:13:05.761Z,92.95
2023-05-15T15:15:35.480Z,93.68
2023-05-15T15:18:03.972Z,95.73
2023-05-15T15:20:32.526Z,95.63
2023-05-15T15:23:02.160Z,95.60
2023-05-15T15:25:32.137Z,96.19
2023-05-15T15:28:00.985Z,95.25
2023-05-15T15:30:29.216Z,95.42
2023-05-15T15:32:57.952Z,96.62
2023-05-15T15:35:26.229Z,96.33
2023-05-15T15:37:54.350Z,94.25
2023-05-15T15:40:24.710Z,93.20
2023-05-15T15:42:54.213Z,93.49
2023-05-15T15:45:22.811Z,91.95
2023-05-15T15:47:51.112Z,91.21
2023-05-15T15:50:19.389Z,90.69
2023-05-15T15:52:47.553Z,92.36
2023-05-15T15:55:15.818Z,93.34
2023-05-15T15:57:45.792Z,94.66
2023-05-15T16:00:15.330Z,94.15
2023-05-15T16:02:43.657Z,94.92
2023-05-15T16:05:11.909Z,95.47
2023-05-15T16:07:40.116Z,95.67
2023-05-15T16:10:27.354Z,94.60
2023-05-15T16:12:57.075Z,94.12
2023-05-15T16:15:25.286Z,94.02
2023-05-15T16:17:54.681Z,90.77
2023-05-15T16:20:24.066Z,86.30
2023-05-15T16:22:52.709Z,83.19
2023-05-15T16:25:21.272Z,83.33
2023-05-15T16:27:49.497Z,84.72
2023-05-15T16:30:21.437Z,85.53
2023-05-15T16:32:50.376Z,85.40
2023-05-15T16:35:20.596Z,81.93
2023-05-15T16:37:48.800Z,78.40
2023-05-15T16:40:16.945Z,76.35
2023-05-15T16:42:45.121Z,75.53
2023-05-15T16:45:13.428Z,75.87
2023-05-15T16:47:43.150Z,78.54
2023-05-15T16:50:11.851Z,79.74
2023-05-15T16:52:45.330Z,80.33
2023-05-15T16:55:16.185Z,81.95
2023-05-15T16:57:45.077Z,80.88
2023-05-15T17:00:14.744Z,81.98
2023-05-15T17:02:44.892Z,84.13
2023-05-15T17:05:14.040Z,83.54
2023-05-15T17:07:43.290Z,84.62
2023-05-15T17:10:13.099Z,84.19
2023-05-15T17:12:41.416Z,84.57
2023-05-15T17:15:10.265Z,86.08
2023-05-15T17:17:38.445Z,84.72
2023-05-15T17:20:09.432Z,85.00
2023-05-15T17:22:37.702Z,85.30
2023-05-15T17:25:07.085Z,85.22
2023-05-15T17:27:39.611Z,87.85
2023-05-15T17:30:09.408Z,89.72
2023-05-15T17:32:38.106Z,90.82
2023-05-15T17:35:08.440Z,91.31
2023-05-15T17:37:36.777Z,92.54
2023-05-15T17:40:05.793Z,93.91
2023-05-15T17:42:34.377Z,96.78
2023-05-15T17:45:03.112Z,97.67
2023-05-15T17:47:31.308Z,97.41
2023-05-15T17:49:59.503Z,96.31
2023-05-15T17:52:29.080Z,95.70
2023-05-15T17:54:57.406Z,95.45
2023-05-15T17:57:25.600Z,95.53
2023-05-15T17:59:54.090Z,94.72
2023-05-15T18:02:22.272Z,94.37
2023-05-15T18:04:51.124Z,93.91
2023-05-15T18:07:19.559Z,94.68
2023-05-15T18:09:49.044Z,95.15
2023-05-15T18:12:17.239Z,95.56
2023-05-15T18:14:46.057Z,96.59
2023-05-15T18:17:14.249Z,98.35
2023-05-15T18:19:44.777Z,99.82
2023-05-15T18:22:13.081Z,99.74
2023-05-15T18:24:41.231Z,100.00
2023-05-15T18:27:10.812Z,100.00
2023-05-15T18:29:39.218Z,100.00
2023-05-15T18:32:07.669Z,100.00
2023-05-15T18:34:35.897Z,100.00
2023-05-15T18:37:04.085Z,100.00
2023-05-15T18:39:32.262Z,100.00
2023-05-15T18:42:01.140Z,100.00
2023-05-15T18:44:32.310Z,100.00
2023-05-15T18:47:00.599Z,100.00
2023-05-15T18:49:29.032Z,100.00
2023-05-15T18:51:57.995Z,100.00
2023-05-15T18:54:26.655Z,100.00
2023-05-15T18:56:54.813Z,100.00
2023-05-15T18:59:23.432Z,100.00
2023-05-15T19:01:53.916Z,100.00
2023-05-15T19:04:22.288Z,100.00
2023-05-15T19:06:50.765Z,100.00
2023-05-15T19:09:19.039Z,100.00
2023-05-15T19:11:49.317Z,100.00
2023-05-15T19:14:18.067Z,100.00
2023-05-15T19:16:46.699Z,100.00
2023-05-15T19:19:16.300Z,100.00
2023-05-15T19:21:44.653Z,100.00
2023-05-15T19:24:12.833Z,100.00
2023-05-15T19:26:40.984Z,100.00
2023-05-15T19:29:09.113Z,100.00
2023-05-15T19:31:38.635Z,100.00
2023-05-15T19:34:06.968Z,100.00
2023-05-15T19:36:36.470Z,100.00
2023-05-15T19:39:04.753Z,100.00
2023-05-15T19:41:33.030Z,100.00
2023-05-15T19:44:02.069Z,100.00
2023-05-15T19:46:30.743Z,100.00
2023-05-15T19:48:58.952Z,100.00
2023-05-15T19:51:27.285Z,100.00
2023-05-15T19:53:59.350Z,100.00
2023-05-15T19:56:27.506Z,100.00
2023-05-15T19:58:55.773Z,100.00
2023-05-15T20:01:24.023Z,100.00
2023-05-15T20:03:52.776Z,100.00
2023-05-15T20:06:21.532Z,100.00
2023-05-15T20:08:50.027Z,100.00
2023-05-15T20:11:19.522Z,100.00
2023-05-15T20:13:47.811Z,100.00
2023-05-15T20:16:16.554Z,100.00
2023-05-15T20:18:47.904Z,100.00
2023-05-15T20:21:16.723Z,100.00
2023-05-15T20:23:44.960Z,100.00
2023-05-15T20:26:13.099Z,100.00
2023-05-15T20:28:45.018Z,100.00
2023-05-15T20:31:13.591Z,100.00
2023-05-15T20:33:41.901Z,100.00
2023-05-15T20:36:10.618Z,100.00
2023-05-15T20:38:39.079Z,100.00
2023-05-15T20:41:07.322Z,100.00
2023-05-15T20:43:35.607Z,100.00
2023-05-15T20:46:05.313Z,100.00
2023-05-15T20:48:33.600Z,100.00
2023-05-15T20:51:01.727Z,100.00
2023-05-15T20:53:29.853Z,100.00
2023-05-15T20:55:58.162Z,100.00
2023-05-15T20:58:26.308Z,100.00
2023-05-15T21:00:54.511Z,100.00
2023-05-15T21:03:24.504Z,100.00
2023-05-15T21:05:54.228Z,100.00
2023-05-15T21:08:24.299Z,100.00
2023-05-15T21:10:55.349Z,100.00
2023-05-15T21:13:23.591Z,100.00
2023-05-15T21:15:52.005Z,100.00
2023-05-15T21:18:20.222Z,100.00
2023-05-15T21:20:49.728Z,100.00
2023-05-15T21:23:18.180Z,100.00
2023-05-15T21:25:46.447Z,100.00
2023-05-15T21:28:14.725Z,100.00
2023-05-15T21:30:42.908Z,100.00
2023-05-15T21:33:11.259Z,100.00
2023-05-15T21:35:39.744Z,100.00
2023-05-15T21:38:09.274Z,100.00
2023-05-15T21:40:37.627Z,100.00
2023-05-15T21:43:05.856Z,100.00
2023-05-15T21:45:34.097Z,100.00
2023-05-15T21:48:02.385Z,100.00
2023-05-15T21:50:30.562Z,100.00
2023-05-15T21:52:58.754Z,100.00
2023-05-15T21:55:28.336Z,100.00
2023-05-15T21:57:56.865Z,100.00
2023-05-15T22:00:25.267Z,100.00
2023-05-15T22:02:53.676Z,100.00
2023-05-15T22:05:22.216Z,100.00
2023-05-15T22:07:50.946Z,100.00
2023-05-15T22:10:19.205Z,100.00
2023-05-15T22:12:49.526Z,100.00
2023-05-15T22:15:17.864Z,100.00
2023-05-15T22:17:46.071Z,100.00
2023-05-15T22:20:14.504Z,100.00
2023-05-15T22:22:43.227Z,100.00
2023-05-15T22:25:11.453Z,100.00
2023-05-15T22:27:39.674Z,100.00
2023-05-15T22:30:10.381Z,100.00
2023-05-15T22:32:41.693Z,100.00
2023-05-15T22:35:10.782Z,100.00
2023-05-15T22:37:40.712Z,100.00
2023-05-15T22:40:10.031Z,100.00
2023-05-15T22:42:38.215Z,100.00
2023-05-15T22:45:07.243Z,100.00
2023-05-15T22:47:36.739Z,100.00
2023-05-15T22:50:05.585Z,100.00
2023-05-15T22:52:33.765Z,100.00
2023-05-15T22:55:01.934Z,100.00
2023-05-15T22:57:30.119Z,100.00
2023-05-15T22:59:58.428Z,100.00
2023-05-15T23:02:27.032Z,100.00
2023-05-15T23:04:56.513Z,100.00
2023-05-15T23:07:24.800Z,100.00
2023-05-15T23:09:53.038Z,100.00
2023-05-15T23:12:21.418Z,100.00
2023-05-15T23:14:49.578Z,100.00
2023-05-15T23:17:17.755Z,100.00
2023-05-15T23:19:46.535Z,100.00
2023-05-15T23:22:16.092Z,100.00
2023-05-15T23:24:44.367Z,100.00
2023-05-15T23:27:12.562Z,100.00
2023-05-15T23:29:41.159Z,100.00
2023-05-15T23:32:09.340Z,100.00
2023-05-15T23:34:37.491Z,100.00
2023-05-15T23:37:06.081Z,100.00
2023-05-15T23:39:36.075Z,100.00
2023-05-15T23:42:04.418Z,100.00
2023-05-15T23:44:32.603Z,100.00
2023-05-15T23:47:01.272Z,100.00
2023-05-15T23:49:29.527Z,100.00
2023-05-15T23:51:57.735Z,100.00
2023-05-15T23:54:26.028Z,100.00
2023-05-15T23:56:55.734Z,100.00
2023-05-15T23:59:23.957Z,100.00
